Hitachimaru — JD2063 — position and weather

sailwx.info

Track history (hours):
 
Tides and Currents Weather Stations Pressure Air Temp Water Temp Dewpoint Dewpoint Depression Visibility Wind Speed Wind Dir Waves Ship Positions

Hitachimaru

Last reported at 2017-Aug-13 20:51 UTC. Time now 2017-Aug-17 23:29 UTC.
Position N 34°37' E 134°54'.

Length 83 m; draft 4.7 m.

Type: Cargo ship. MMSI: 431301756.

Date/timePositionNaut miles runAvg speedWind from/ knotsBaromVisibWave heightAir tempDewpointWater temp
2017-Aug-13 20:51N 34°37' E 134°54'6 9.3
2017-Aug-13 20:12N 34°37' E 135°01'2 8.7
2017-Aug-13 20:00N 34°36' E 135°03'4 8.1
2017-Aug-13 19:30N 34°33' E 135°05'611.3
2017-Aug-13 19:00N 34°27' E 135°03'611.1
2017-Aug-13 18:28N 34°22' E 135°01'710.9
2017-Aug-13 17:50N 34°15' E 134°60'411.2
2017-Aug-13 17:29N 34°11' E 135°00'611.3
2017-Aug-13 16:56N 34°05' E 135°01'  
2017-Aug-04 23:36N 34°57' E 139°44'112.7
2017-Aug-04 23:30N 34°58' E 139°43'612.5
2017-Aug-04 23:00N 35°04' E 139°44'612.9
2017-Aug-04 22:30N 35°10' E 139°46'612.9
2017-Aug-04 22:00N 35°17' E 139°45'612.6
2017-Aug-04 21:30N 35°22' E 139°42'612.8
2017-Aug-04 21:00N 35°27' E 139°47'713.1
2017-Aug-04 20:30N 35°32' E 139°53'5 3.4
2017-Aug-04 18:58N 35°36' E 139°57'0 0.0
2017-Aug-04 18:28N 35°36' E 139°57'0 0.0
2017-Aug-04 17:55N 35°36' E 139°57'0 0.0
2017-Aug-04 01:06N 35°36' E 139°57'0 0.0
2017-Aug-04 00:57N 35°36' E 139°57'  
Track history (hours):
 
Tides and Currents Weather Stations Pressure Air Temp Water Temp Dewpoint Dewpoint Depression Visibility Wind Speed Wind Dir Waves Ship Positions

Hitachimaru

Last reported at 2017-Aug-13 20:51 UTC. Time now 2017-Aug-17 23:29 UTC.
Position N 34°37' E 134°54'.

Length 83 m; draft 4.7 m.

Type: Cargo ship. MMSI: 431301756.

Date/timePositionNaut miles runAvg speedWind from/ knotsBaromVisibWave heightAir tempDewpointWater temp
2017-Aug-13 20:51N 34°37' E 134°54'6 9.3
2017-Aug-13 20:12N 34°37' E 135°01'2 8.7
2017-Aug-13 20:00N 34°36' E 135°03'4 8.1
2017-Aug-13 19:30N 34°33' E 135°05'611.3
2017-Aug-13 19:00N 34°27' E 135°03'611.1
2017-Aug-13 18:28N 34°22' E 135°01'710.9
2017-Aug-13 17:50N 34°15' E 134°60'411.2
2017-Aug-13 17:29N 34°11' E 135°00'611.3
2017-Aug-13 16:56N 34°05' E 135°01'  
2017-Aug-04 23:36N 34°57' E 139°44'112.7
2017-Aug-04 23:30N 34°58' E 139°43'612.5
2017-Aug-04 23:00N 35°04' E 139°44'612.9
2017-Aug-04 22:30N 35°10' E 139°46'612.9
2017-Aug-04 22:00N 35°17' E 139°45'612.6
2017-Aug-04 21:30N 35°22' E 139°42'612.8
2017-Aug-04 21:00N 35°27' E 139°47'713.1
2017-Aug-04 20:30N 35°32' E 139°53'5 3.4
2017-Aug-04 18:58N 35°36' E 139°57'0 0.0
2017-Aug-04 18:28N 35°36' E 139°57'0 0.0
2017-Aug-04 17:55N 35°36' E 139°57'0 0.0
2017-Aug-04 01:06N 35°36' E 139°57'0 0.0
2017-Aug-04 00:57N 35°36' E 139°57'  

Dump ship's entire track history